ンジャメナ の空港の天気 - METARとTAF

ンジャメナ国際空港 ( FTTJ / NDJ ) - チャド ンジャメナ
飛行場実況気象(Metar)
観測時間10/22 13:00 WAT (10/22 12:00 UTC)
風向・風速北北東 7m/s
視程10km以上
天気現象
なし
気温39℃
湿度12%
気圧1009hPa
METARFTTJ 221200Z 03013KT 030V110 CAVOK 39/05 Q1009 NOSIG
過去の天気等 Google飛行場航空写真 Wunderground天気予報

過去48時間のMETAR

飛行場予報(TAF)
発表時間: 10/22 12:00 WAT (10/22 11:00 UTC)
予報対象時間: 22日13時 WAT ~ 23日19時 WAT
風向・風速北東 5m/s
視程6000m
なし
22日17時 WAT ~ 22日21時 WAT に一時的に
視程4000m
天気現象煙霧
23日5時 WAT ~ 23日9時 WAT に一時的に
視程4000m
天気現象煙霧
23日17時 WAT ~ 23日19時 WAT に一時的に
視程3000m
天気現象煙霧
TAF FTTJ 221100Z 2212/2318 04010KT 6000 NSC
TEMPO 2216/2220 4000 HZ
TEMPO 2304/2308 4000 HZ
TEMPO 2316/2318 3000 HZ